sensor_id;sensor_type;location;lat;lon;timestamp;P1;durP1;ratioP1;P2;durP2;ratioP2
39426;SDS011;25938;48.470;1.486;2023-05-10T00:00:08;3.47;;;0.25;;
39426;SDS011;25938;48.470;1.486;2023-05-10T00:02:34;4.03;;;0.30;;
39426;SDS011;25938;48.470;1.486;2023-05-10T00:05:00;2.63;;;0.47;;
39426;SDS011;25938;48.470;1.486;2023-05-10T00:07:26;2.25;;;0.30;;
39426;SDS011;25938;48.470;1.486;2023-05-10T00:09:52;2.85;;;0.30;;
39426;SDS011;25938;48.470;1.486;2023-05-10T00:12:18;2.90;;;0.25;;
39426;SDS011;25938;48.470;1.486;2023-05-10T00:14:44;5.03;;;0.40;;
39426;SDS011;25938;48.470;1.486;2023-05-10T00:17:10;1.00;;;0.30;;
39426;SDS011;25938;48.470;1.486;2023-05-10T00:19:36;5.07;;;0.95;;
39426;SDS011;25938;48.470;1.486;2023-05-10T00:22:02;3.40;;;0.25;;
39426;SDS011;25938;48.470;1.486;2023-05-10T00:24:28;1.55;;;0.45;;
39426;SDS011;25938;48.470;1.486;2023-05-10T00:26:54;1.10;;;0.20;;
39426;SDS011;25938;48.470;1.486;2023-05-10T00:29:20;3.63;;;0.30;;
39426;SDS011;25938;48.470;1.486;2023-05-10T00:31:46;1.13;;;0.25;;
39426;SDS011;25938;48.470;1.486;2023-05-10T00:34:12;1.50;;;0.50;;
39426;SDS011;25938;48.470;1.486;2023-05-10T00:36:38;1.80;;;0.45;;
39426;SDS011;25938;48.470;1.486;2023-05-10T00:39:04;1.50;;;0.20;;
39426;SDS011;25938;48.470;1.486;2023-05-10T00:41:31;1.17;;;0.15;;
39426;SDS011;25938;48.470;1.486;2023-05-10T00:43:57;2.70;;;0.20;;
39426;SDS011;25938;48.470;1.486;2023-05-10T00:46:23;0.60;;;0.10;;
39426;SDS011;25938;48.470;1.486;2023-05-10T00:48:50;0.73;;;0.20;;
39426;SDS011;25938;48.470;1.486;2023-05-10T00:51:16;0.60;;;0.10;;
39426;SDS011;25938;48.470;1.486;2023-05-10T00:53:42;0.75;;;0.00;;
39426;SDS011;25938;48.470;1.486;2023-05-10T00:56:09;1.05;;;0.30;;
39426;SDS011;25938;48.470;1.486;2023-05-10T00:58:35;2.35;;;0.50;;
39426;SDS011;25938;48.470;1.486;2023-05-10T01:01:01;4.25;;;0.20;;
39426;SDS011;25938;48.470;1.486;2023-05-10T01:03:28;0.98;;;0.15;;
39426;SDS011;25938;48.470;1.486;2023-05-10T01:05:54;1.67;;;0.20;;
39426;SDS011;25938;48.470;1.486;2023-05-10T01:08:20;2.65;;;0.57;;
39426;SDS011;25938;48.470;1.486;2023-05-10T01:10:47;0.95;;;0.28;;
39426;SDS011;25938;48.470;1.486;2023-05-10T01:13:15;1.88;;;0.30;;
39426;SDS011;25938;48.470;1.486;2023-05-10T01:15:44;2.38;;;0.30;;
39426;SDS011;25938;48.470;1.486;2023-05-10T01:18:11;2.45;;;0.40;;
39426;SDS011;25938;48.470;1.486;2023-05-10T01:20:40;3.35;;;0.25;;
39426;SDS011;25938;48.470;1.486;2023-05-10T01:38:16;0.82;;;0.17;;
39426;SDS011;25938;48.470;1.486;2023-05-10T01:44:02;0.30;;;0.00;;
39426;SDS011;25938;48.470;1.486;2023-05-10T01:46:35;2.38;;;0.20;;
39426;SDS011;25938;48.470;1.486;2023-05-10T01:51:31;6.57;;;1.38;;
39426;SDS011;25938;48.470;1.486;2023-05-10T01:54:02;1.42;;;0.32;;
39426;SDS011;25938;48.470;1.486;2023-05-10T01:56:30;0.60;;;0.15;;
39426;SDS011;25938;48.470;1.486;2023-05-10T01:58:57;1.48;;;0.20;;
39426;SDS011;25938;48.470;1.486;2023-05-10T02:01:24;1.52;;;0.17;;
39426;SDS011;25938;48.470;1.486;2023-05-10T02:03:51;3.42;;;0.30;;
39426;SDS011;25938;48.470;1.486;2023-05-10T02:06:18;0.50;;;0.03;;
39426;SDS011;25938;48.470;1.486;2023-05-10T02:08:45;1.27;;;0.20;;
39426;SDS011;25938;48.470;1.486;2023-05-10T02:11:13;1.05;;;0.10;;
39426;SDS011;25938;48.470;1.486;2023-05-10T02:13:39;1.67;;;0.10;;
39426;SDS011;25938;48.470;1.486;2023-05-10T02:16:08;1.60;;;0.10;;
39426;SDS011;25938;48.470;1.486;2023-05-10T02:18:34;2.50;;;0.20;;
39426;SDS011;25938;48.470;1.486;2023-05-10T02:21:02;3.08;;;0.10;;
39426;SDS011;25938;48.470;1.486;2023-05-10T02:23:28;3.42;;;0.10;;
39426;SDS011;25938;48.470;1.486;2023-05-10T02:25:54;2.28;;;0.10;;
39426;SDS011;25938;48.470;1.486;2023-05-10T02:28:23;2.92;;;0.20;;
39426;SDS011;25938;48.470;1.486;2023-05-10T02:30:49;2.75;;;0.15;;
39426;SDS011;25938;48.470;1.486;2023-05-10T02:33:16;1.15;;;0.43;;
39426;SDS011;25938;48.470;1.486;2023-05-10T02:35:42;0.80;;;0.28;;
39426;SDS011;25938;48.470;1.486;2023-05-10T02:38:08;0.80;;;0.05;;
39426;SDS011;25938;48.470;1.486;2023-05-10T02:40:37;2.42;;;0.20;;
39426;SDS011;25938;48.470;1.486;2023-05-10T02:43:03;1.48;;;0.10;;
39426;SDS011;25938;48.470;1.486;2023-05-10T02:45:30;2.70;;;0.20;;
39426;SDS011;25938;48.470;1.486;2023-05-10T02:47:56;1.48;;;0.30;;
39426;SDS011;25938;48.470;1.486;2023-05-10T02:50:25;1.20;;;0.30;;
39426;SDS011;25938;48.470;1.486;2023-05-10T02:52:52;1.60;;;0.15;;
39426;SDS011;25938;48.470;1.486;2023-05-10T02:55:21;1.95;;;0.10;;
39426;SDS011;25938;48.470;1.486;2023-05-10T02:57:52;0.80;;;0.10;;
39426;SDS011;25938;48.470;1.486;2023-05-10T03:00:19;2.05;;;0.50;;
39426;SDS011;25938;48.470;1.486;2023-05-10T03:02:45;0.15;;;0.08;;
39426;SDS011;25938;48.470;1.486;2023-05-10T03:05:12;1.00;;;0.10;;
39426;SDS011;25938;48.470;1.486;2023-05-10T03:07:38;1.02;;;0.03;;
39426;SDS011;25938;48.470;1.486;2023-05-10T03:10:04;0.38;;;0.00;;
39426;SDS011;25938;48.470;1.486;2023-05-10T03:15:04;1.27;;;0.10;;
39426;SDS011;25938;48.470;1.486;2023-05-10T03:17:48;2.92;;;0.17;;
39426;SDS011;25938;48.470;1.486;2023-05-10T03:20:18;0.57;;;0.00;;
39426;SDS011;25938;48.470;1.486;2023-05-10T03:22:47;0.28;;;0.03;;
39426;SDS011;25938;48.470;1.486;2023-05-10T03:25:15;0.08;;;0.00;;
39426;SDS011;25938;48.470;1.486;2023-05-10T03:27:42;0.13;;;0.00;;
39426;SDS011;25938;48.470;1.486;2023-05-10T03:30:10;1.45;;;0.10;;
39426;SDS011;25938;48.470;1.486;2023-05-10T03:32:36;0.52;;;0.10;;
39426;SDS011;25938;48.470;1.486;2023-05-10T03:35:09;1.77;;;0.20;;
39426;SDS011;25938;48.470;1.486;2023-05-10T03:37:35;0.05;;;0.00;;
39426;SDS011;25938;48.470;1.486;2023-05-10T03:40:01;1.77;;;0.15;;
39426;SDS011;25938;48.470;1.486;2023-05-10T03:42:27;1.95;;;0.10;;
39426;SDS011;25938;48.470;1.486;2023-05-10T03:44:53;2.83;;;0.10;;
39426;SDS011;25938;48.470;1.486;2023-05-10T03:47:19;1.23;;;0.20;;
39426;SDS011;25938;48.470;1.486;2023-05-10T03:49:45;0.73;;;0.00;;
39426;SDS011;25938;48.470;1.486;2023-05-10T03:52:11;0.77;;;0.10;;
39426;SDS011;25938;48.470;1.486;2023-05-10T03:54:37;1.65;;;0.20;;
39426;SDS011;25938;48.470;1.486;2023-05-10T03:57:03;1.70;;;0.25;;
39426;SDS011;25938;48.470;1.486;2023-05-10T03:59:29;1.45;;;0.10;;
39426;SDS011;25938;48.470;1.486;2023-05-10T04:01:56;0.08;;;0.00;;
39426;SDS011;25938;48.470;1.486;2023-05-10T04:04:22;0.90;;;0.10;;
39426;SDS011;25938;48.470;1.486;2023-05-10T04:06:48;1.02;;;0.10;;
39426;SDS011;25938;48.470;1.486;2023-05-10T04:09:14;0.10;;;0.00;;
39426;SDS011;25938;48.470;1.486;2023-05-10T04:11:41;0.90;;;0.00;;
39426;SDS011;25938;48.470;1.486;2023-05-10T04:14:07;1.40;;;0.10;;
39426;SDS011;25938;48.470;1.486;2023-05-10T04:16:33;0.30;;;0.05;;
39426;SDS011;25938;48.470;1.486;2023-05-10T04:18:59;2.47;;;0.10;;
39426;SDS011;25938;48.470;1.486;2023-05-10T04:21:25;1.02;;;0.10;;
39426;SDS011;25938;48.470;1.486;2023-05-10T04:23:51;0.60;;;0.10;;
39426;SDS011;25938;48.470;1.486;2023-05-10T04:26:17;2.67;;;0.17;;
39426;SDS011;25938;48.470;1.486;2023-05-10T04:28:43;2.35;;;1.38;;
39426;SDS011;25938;48.470;1.486;2023-05-10T04:31:10;0.00;;;0.00;;
39426;SDS011;25938;48.470;1.486;2023-05-10T04:33:36;0.38;;;0.20;;
39426;SDS011;25938;48.470;1.486;2023-05-10T04:36:02;1.90;;;0.65;;
39426;SDS011;25938;48.470;1.486;2023-05-10T04:38:29;1.98;;;0.32;;
39426;SDS011;25938;48.470;1.486;2023-05-10T04:41:03;1.17;;;0.00;;
39426;SDS011;25938;48.470;1.486;2023-05-10T04:43:30;0.35;;;0.00;;
39426;SDS011;25938;48.470;1.486;2023-05-10T04:45:56;0.45;;;0.10;;
39426;SDS011;25938;48.470;1.486;2023-05-10T04:48:22;3.00;;;1.98;;
39426;SDS011;25938;48.470;1.486;2023-05-10T04:50:48;0.98;;;0.00;;
39426;SDS011;25938;48.470;1.486;2023-05-10T04:53:14;0.15;;;0.00;;
39426;SDS011;25938;48.470;1.486;2023-05-10T04:55:40;0.10;;;0.00;;
39426;SDS011;25938;48.470;1.486;2023-05-10T04:58:06;1.23;;;0.00;;
39426;SDS011;25938;48.470;1.486;2023-05-10T05:00:32;0.57;;;0.00;;
39426;SDS011;25938;48.470;1.486;2023-05-10T05:02:58;1.45;;;0.05;;
39426;SDS011;25938;48.470;1.486;2023-05-10T05:05:24;0.10;;;0.00;;
39426;SDS011;25938;48.470;1.486;2023-05-10T05:07:50;1.63;;;0.10;;
39426;SDS011;25938;48.470;1.486;2023-05-10T05:10:16;0.47;;;0.00;;
39426;SDS011;25938;48.470;1.486;2023-05-10T05:12:42;0.63;;;0.15;;
39426;SDS011;25938;48.470;1.486;2023-05-10T05:15:08;1.42;;;0.00;;
39426;SDS011;25938;48.470;1.486;2023-05-10T05:17:35;0.40;;;0.10;;
39426;SDS011;25938;48.470;1.486;2023-05-10T05:20:01;3.20;;;0.55;;
39426;SDS011;25938;48.470;1.486;2023-05-10T05:22:28;0.25;;;0.10;;
39426;SDS011;25938;48.470;1.486;2023-05-10T05:24:54;0.22;;;0.00;;
39426;SDS011;25938;48.470;1.486;2023-05-10T05:27:20;0.00;;;0.00;;
39426;SDS011;25938;48.470;1.486;2023-05-10T05:29:49;0.28;;;0.10;;
39426;SDS011;25938;48.470;1.486;2023-05-10T05:32:15;0.20;;;0.00;;
39426;SDS011;25938;48.470;1.486;2023-05-10T05:34:41;0.70;;;0.28;;
39426;SDS011;25938;48.470;1.486;2023-05-10T05:37:07;0.70;;;0.10;;
39426;SDS011;25938;48.470;1.486;2023-05-10T05:39:35;0.00;;;0.00;;
39426;SDS011;25938;48.470;1.486;2023-05-10T05:42:01;0.08;;;0.08;;
39426;SDS011;25938;48.470;1.486;2023-05-10T05:44:27;0.93;;;0.10;;
39426;SDS011;25938;48.470;1.486;2023-05-10T05:46:53;0.30;;;0.10;;
39426;SDS011;25938;48.470;1.486;2023-05-10T05:49:19;0.82;;;0.10;;
39426;SDS011;25938;48.470;1.486;2023-05-10T05:51:45;1.52;;;0.50;;
39426;SDS011;25938;48.470;1.486;2023-05-10T05:54:12;1.85;;;0.63;;
39426;SDS011;25938;48.470;1.486;2023-05-10T05:56:38;0.93;;;0.10;;
39426;SDS011;25938;48.470;1.486;2023-05-10T05:59:06;1.13;;;0.15;;
39426;SDS011;25938;48.470;1.486;2023-05-10T06:01:33;1.15;;;0.20;;
39426;SDS011;25938;48.470;1.486;2023-05-10T06:03:59;3.13;;;0.38;;
39426;SDS011;25938;48.470;1.486;2023-05-10T06:06:24;1.48;;;0.20;;
39426;SDS011;25938;48.470;1.486;2023-05-10T06:08:50;1.30;;;0.40;;
39426;SDS011;25938;48.470;1.486;2023-05-10T06:11:16;1.70;;;0.30;;
39426;SDS011;25938;48.470;1.486;2023-05-10T06:13:42;2.13;;;1.10;;
39426;SDS011;25938;48.470;1.486;2023-05-10T06:16:09;0.93;;;0.17;;
39426;SDS011;25938;48.470;1.486;2023-05-10T06:18:35;1.55;;;0.50;;
39426;SDS011;25938;48.470;1.486;2023-05-10T06:21:02;4.53;;;0.70;;
39426;SDS011;25938;48.470;1.486;2023-05-10T06:23:28;5.05;;;1.08;;
39426;SDS011;25938;48.470;1.486;2023-05-10T06:25:54;4.47;;;0.50;;
39426;SDS011;25938;48.470;1.486;2023-05-10T06:28:20;3.15;;;1.00;;
39426;SDS011;25938;48.470;1.486;2023-05-10T06:30:46;4.82;;;0.93;;
39426;SDS011;25938;48.470;1.486;2023-05-10T06:33:12;4.57;;;0.65;;
39426;SDS011;25938;48.470;1.486;2023-05-10T06:35:38;3.92;;;1.15;;
39426;SDS011;25938;48.470;1.486;2023-05-10T06:38:04;3.45;;;2.13;;
39426;SDS011;25938;48.470;1.486;2023-05-10T06:40:30;9.13;;;1.98;;
39426;SDS011;25938;48.470;1.486;2023-05-10T06:42:57;5.43;;;1.50;;
39426;SDS011;25938;48.470;1.486;2023-05-10T06:45:23;7.47;;;1.10;;
39426;SDS011;25938;48.470;1.486;2023-05-10T06:47:49;6.45;;;1.10;;
39426;SDS011;25938;48.470;1.486;2023-05-10T06:50:15;6.25;;;2.38;;
39426;SDS011;25938;48.470;1.486;2023-05-10T06:52:41;6.65;;;1.08;;
39426;SDS011;25938;48.470;1.486;2023-05-10T06:55:07;8.18;;;1.75;;
39426;SDS011;25938;48.470;1.486;2023-05-10T06:57:34;5.93;;;1.20;;
39426;SDS011;25938;48.470;1.486;2023-05-10T07:00:00;6.80;;;1.25;;
39426;SDS011;25938;48.470;1.486;2023-05-10T07:02:26;5.03;;;1.25;;
39426;SDS011;25938;48.470;1.486;2023-05-10T07:04:52;6.57;;;1.42;;
39426;SDS011;25938;48.470;1.486;2023-05-10T07:07:19;9.48;;;2.72;;
39426;SDS011;25938;48.470;1.486;2023-05-10T07:09:45;6.28;;;1.98;;
39426;SDS011;25938;48.470;1.486;2023-05-10T07:12:11;8.82;;;2.25;;
39426;SDS011;25938;48.470;1.486;2023-05-10T07:14:37;8.57;;;1.75;;
39426;SDS011;25938;48.470;1.486;2023-05-10T07:17:03;3.65;;;1.30;;
39426;SDS011;25938;48.470;1.486;2023-05-10T07:19:29;8.40;;;1.33;;
39426;SDS011;25938;48.470;1.486;2023-05-10T07:21:57;6.20;;;2.00;;
39426;SDS011;25938;48.470;1.486;2023-05-10T07:24:23;7.13;;;1.40;;
39426;SDS011;25938;48.470;1.486;2023-05-10T07:26:49;5.85;;;1.88;;
39426;SDS011;25938;48.470;1.486;2023-05-10T07:29:15;9.65;;;2.47;;
39426;SDS011;25938;48.470;1.486;2023-05-10T07:31:41;4.45;;;2.22;;
39426;SDS011;25938;48.470;1.486;2023-05-10T07:34:08;7.82;;;1.70;;
39426;SDS011;25938;48.470;1.486;2023-05-10T07:36:34;9.45;;;1.88;;
39426;SDS011;25938;48.470;1.486;2023-05-10T07:39:00;10.63;;;1.95;;
39426;SDS011;25938;48.470;1.486;2023-05-10T07:41:26;6.07;;;1.60;;
39426;SDS011;25938;48.470;1.486;2023-05-10T07:43:52;8.95;;;2.33;;
39426;SDS011;25938;48.470;1.486;2023-05-10T07:46:18;7.65;;;1.45;;
39426;SDS011;25938;48.470;1.486;2023-05-10T07:48:45;6.00;;;1.85;;
39426;SDS011;25938;48.470;1.486;2023-05-10T07:51:11;6.05;;;1.42;;
39426;SDS011;25938;48.470;1.486;2023-05-10T07:53:37;7.35;;;1.85;;
39426;SDS011;25938;48.470;1.486;2023-05-10T07:58:48;5.82;;;1.50;;
39426;SDS011;25938;48.470;1.486;2023-05-10T08:01:14;7.90;;;2.30;;
39426;SDS011;25938;48.470;1.486;2023-05-10T08:03:40;9.68;;;2.03;;
39426;SDS011;25938;48.470;1.486;2023-05-10T08:06:06;9.43;;;1.90;;
39426;SDS011;25938;48.470;1.486;2023-05-10T08:08:32;3.38;;;1.92;;
39426;SDS011;25938;48.470;1.486;2023-05-10T08:10:58;7.80;;;1.63;;
39426;SDS011;25938;48.470;1.486;2023-05-10T08:13:24;7.72;;;1.65;;
39426;SDS011;25938;48.470;1.486;2023-05-10T08:15:50;13.07;;;2.60;;
39426;SDS011;25938;48.470;1.486;2023-05-10T08:18:18;9.05;;;1.70;;
39426;SDS011;25938;48.470;1.486;2023-05-10T08:20:44;6.65;;;1.95;;
39426;SDS011;25938;48.470;1.486;2023-05-10T08:23:11;4.25;;;1.40;;
39426;SDS011;25938;48.470;1.486;2023-05-10T08:25:38;4.25;;;0.88;;
39426;SDS011;25938;48.470;1.486;2023-05-10T08:28:04;8.40;;;1.85;;
39426;SDS011;25938;48.470;1.486;2023-05-10T08:30:30;7.60;;;1.13;;
39426;SDS011;25938;48.470;1.486;2023-05-10T08:32:56;6.03;;;1.50;;
39426;SDS011;25938;48.470;1.486;2023-05-10T08:35:22;4.45;;;1.42;;
39426;SDS011;25938;48.470;1.486;2023-05-10T08:37:48;7.40;;;1.40;;
39426;SDS011;25938;48.470;1.486;2023-05-10T08:40:14;5.72;;;1.98;;
39426;SDS011;25938;48.470;1.486;2023-05-10T08:42:43;5.38;;;1.10;;
39426;SDS011;25938;48.470;1.486;2023-05-10T08:45:09;7.47;;;1.90;;
39426;SDS011;25938;48.470;1.486;2023-05-10T08:47:36;6.00;;;1.65;;
39426;SDS011;25938;48.470;1.486;2023-05-10T08:50:03;7.00;;;2.72;;
39426;SDS011;25938;48.470;1.486;2023-05-10T08:52:30;4.20;;;1.70;;
39426;SDS011;25938;48.470;1.486;2023-05-10T08:54:56;5.85;;;1.20;;
39426;SDS011;25938;48.470;1.486;2023-05-10T08:57:22;6.32;;;1.10;;
39426;SDS011;25938;48.470;1.486;2023-05-10T08:59:48;4.07;;;1.20;;
39426;SDS011;25938;48.470;1.486;2023-05-10T09:02:14;6.80;;;3.13;;
39426;SDS011;25938;48.470;1.486;2023-05-10T09:04:40;4.90;;;1.05;;
39426;SDS011;25938;48.470;1.486;2023-05-10T09:07:06;8.40;;;1.10;;
39426;SDS011;25938;48.470;1.486;2023-05-10T09:09:33;6.93;;;1.25;;
39426;SDS011;25938;48.470;1.486;2023-05-10T09:11:59;4.20;;;1.35;;
39426;SDS011;25938;48.470;1.486;2023-05-10T09:14:25;4.63;;;1.70;;
39426;SDS011;25938;48.470;1.486;2023-05-10T09:16:51;4.80;;;1.58;;
39426;SDS011;25938;48.470;1.486;2023-05-10T09:19:19;3.83;;;1.20;;
39426;SDS011;25938;48.470;1.486;2023-05-10T09:21:45;4.07;;;0.60;;
39426;SDS011;25938;48.470;1.486;2023-05-10T09:24:11;6.07;;;0.77;;
39426;SDS011;25938;48.470;1.486;2023-05-10T09:26:47;3.47;;;1.05;;
39426;SDS011;25938;48.470;1.486;2023-05-10T09:29:13;5.38;;;1.52;;
39426;SDS011;25938;48.470;1.486;2023-05-10T09:31:49;7.38;;;1.35;;
39426;SDS011;25938;48.470;1.486;2023-05-10T09:34:20;3.72;;;1.23;;
39426;SDS011;25938;48.470;1.486;2023-05-10T09:36:50;5.53;;;1.30;;
39426;SDS011;25938;48.470;1.486;2023-05-10T09:39:16;4.03;;;1.13;;
39426;SDS011;25938;48.470;1.486;2023-05-10T09:41:42;3.90;;;0.85;;
39426;SDS011;25938;48.470;1.486;2023-05-10T09:44:08;3.95;;;1.20;;
39426;SDS011;25938;48.470;1.486;2023-05-10T09:46:34;7.57;;;1.08;;
39426;SDS011;25938;48.470;1.486;2023-05-10T09:49:01;2.53;;;0.68;;
39426;SDS011;25938;48.470;1.486;2023-05-10T09:51:27;2.70;;;1.02;;
39426;SDS011;25938;48.470;1.486;2023-05-10T09:56:39;3.00;;;0.93;;
39426;SDS011;25938;48.470;1.486;2023-05-10T09:59:06;5.90;;;1.45;;
39426;SDS011;25938;48.470;1.486;2023-05-10T10:01:33;1.63;;;1.15;;
39426;SDS011;25938;48.470;1.486;2023-05-10T10:04:07;4.57;;;1.80;;
39426;SDS011;25938;48.470;1.486;2023-05-10T10:08:59;5.97;;;1.90;;
39426;SDS011;25938;48.470;1.486;2023-05-10T10:11:25;6.05;;;1.15;;
39426;SDS011;25938;48.470;1.486;2023-05-10T10:13:51;2.22;;;0.60;;
39426;SDS011;25938;48.470;1.486;2023-05-10T10:16:18;6.50;;;1.13;;
39426;SDS011;25938;48.470;1.486;2023-05-10T10:18:44;3.67;;;1.10;;
39426;SDS011;25938;48.470;1.486;2023-05-10T10:21:12;7.47;;;1.48;;
39426;SDS011;25938;48.470;1.486;2023-05-10T10:23:39;3.65;;;1.05;;
39426;SDS011;25938;48.470;1.486;2023-05-10T10:26:04;3.45;;;1.48;;
39426;SDS011;25938;48.470;1.486;2023-05-10T10:30:57;7.63;;;1.05;;
39426;SDS011;25938;48.470;1.486;2023-05-10T10:36:05;4.00;;;1.42;;
39426;SDS011;25938;48.470;1.486;2023-05-10T10:41:29;7.35;;;1.02;;
39426;SDS011;25938;48.470;1.486;2023-05-10T10:47:22;4.38;;;1.20;;
39426;SDS011;25938;48.470;1.486;2023-05-10T10:50:04;3.70;;;1.20;;
39426;SDS011;25938;48.470;1.486;2023-05-10T10:52:39;7.10;;;1.70;;
39426;SDS011;25938;48.470;1.486;2023-05-10T10:55:06;4.57;;;1.58;;
39426;SDS011;25938;48.470;1.486;2023-05-10T11:00:30;4.00;;;1.00;;
39426;SDS011;25938;48.470;1.486;2023-05-10T11:02:57;5.63;;;0.77;;
39426;SDS011;25938;48.470;1.486;2023-05-10T11:08:46;5.70;;;2.70;;
39426;SDS011;25938;48.470;1.486;2023-05-10T11:11:01;5.68;;;0.77;;
39426;SDS011;25938;48.470;1.486;2023-05-10T11:15:54;4.70;;;1.08;;
39426;SDS011;25938;48.470;1.486;2023-05-10T11:18:28;3.60;;;0.95;;
39426;SDS011;25938;48.470;1.486;2023-05-10T11:20:59;3.45;;;0.85;;
39426;SDS011;25938;48.470;1.486;2023-05-10T11:23:31;5.00;;;1.05;;
39426;SDS011;25938;48.470;1.486;2023-05-10T11:25:58;3.03;;;0.77;;
39426;SDS011;25938;48.470;1.486;2023-05-10T11:28:24;4.53;;;0.70;;
39426;SDS011;25938;48.470;1.486;2023-05-10T11:30:51;3.42;;;0.70;;
39426;SDS011;25938;48.470;1.486;2023-05-10T11:33:18;2.95;;;0.55;;
39426;SDS011;25938;48.470;1.486;2023-05-10T11:35:44;2.88;;;0.55;;
39426;SDS011;25938;48.470;1.486;2023-05-10T11:38:11;2.78;;;1.10;;
39426;SDS011;25938;48.470;1.486;2023-05-10T11:40:37;3.80;;;1.00;;
39426;SDS011;25938;48.470;1.486;2023-05-10T11:43:03;1.52;;;0.40;;
39426;SDS011;25938;48.470;1.486;2023-05-10T11:45:33;2.95;;;0.82;;
39426;SDS011;25938;48.470;1.486;2023-05-10T11:48:00;3.92;;;0.75;;
39426;SDS011;25938;48.470;1.486;2023-05-10T11:50:26;2.50;;;0.73;;
39426;SDS011;25938;48.470;1.486;2023-05-10T11:52:53;2.42;;;0.32;;
39426;SDS011;25938;48.470;1.486;2023-05-10T11:55:19;5.88;;;0.47;;
39426;SDS011;25938;48.470;1.486;2023-05-10T11:57:46;4.72;;;0.77;;
39426;SDS011;25938;48.470;1.486;2023-05-10T12:00:15;1.38;;;0.68;;
39426;SDS011;25938;48.470;1.486;2023-05-10T12:02:41;6.57;;;1.05;;
39426;SDS011;25938;48.470;1.486;2023-05-10T12:05:07;4.05;;;0.85;;
39426;SDS011;25938;48.470;1.486;2023-05-10T12:07:33;2.70;;;0.57;;
39426;SDS011;25938;48.470;1.486;2023-05-10T12:12:36;5.43;;;1.67;;
39426;SDS011;25938;48.470;1.486;2023-05-10T12:15:02;7.97;;;2.80;;
39426;SDS011;25938;48.470;1.486;2023-05-10T12:17:28;2.42;;;0.85;;
39426;SDS011;25938;48.470;1.486;2023-05-10T12:19:58;9.38;;;2.67;;
39426;SDS011;25938;48.470;1.486;2023-05-10T12:22:24;3.50;;;1.17;;
39426;SDS011;25938;48.470;1.486;2023-05-10T12:24:50;3.95;;;1.00;;
39426;SDS011;25938;48.470;1.486;2023-05-10T12:27:17;7.25;;;1.73;;
39426;SDS011;25938;48.470;1.486;2023-05-10T12:29:42;2.60;;;1.23;;
39426;SDS011;25938;48.470;1.486;2023-05-10T12:32:09;2.75;;;0.85;;
39426;SDS011;25938;48.470;1.486;2023-05-10T12:34:35;5.38;;;1.10;;
39426;SDS011;25938;48.470;1.486;2023-05-10T12:37:03;5.22;;;1.10;;
39426;SDS011;25938;48.470;1.486;2023-05-10T12:39:42;3.78;;;0.70;;
39426;SDS011;25938;48.470;1.486;2023-05-10T12:42:09;3.42;;;1.20;;
39426;SDS011;25938;48.470;1.486;2023-05-10T12:44:35;5.20;;;1.20;;
39426;SDS011;25938;48.470;1.486;2023-05-10T12:47:01;10.20;;;1.60;;
39426;SDS011;25938;48.470;1.486;2023-05-10T12:49:27;2.25;;;0.90;;
39426;SDS011;25938;48.470;1.486;2023-05-10T12:51:53;6.03;;;2.10;;
39426;SDS011;25938;48.470;1.486;2023-05-10T12:54:19;2.70;;;0.75;;
39426;SDS011;25938;48.470;1.486;2023-05-10T12:56:45;5.97;;;0.98;;
39426;SDS011;25938;48.470;1.486;2023-05-10T12:59:11;2.53;;;0.85;;
39426;SDS011;25938;48.470;1.486;2023-05-10T13:01:37;3.42;;;0.65;;
39426;SDS011;25938;48.470;1.486;2023-05-10T13:04:03;3.42;;;0.70;;
39426;SDS011;25938;48.470;1.486;2023-05-10T13:06:29;0.85;;;0.30;;
39426;SDS011;25938;48.470;1.486;2023-05-10T13:08:56;1.20;;;0.20;;
39426;SDS011;25938;48.470;1.486;2023-05-10T13:11:22;2.83;;;0.63;;
39426;SDS011;25938;48.470;1.486;2023-05-10T13:13:48;2.17;;;0.50;;
39426;SDS011;25938;48.470;1.486;2023-05-10T13:16:14;2.55;;;0.40;;
39426;SDS011;25938;48.470;1.486;2023-05-10T13:18:40;2.70;;;0.57;;
39426;SDS011;25938;48.470;1.486;2023-05-10T13:21:06;2.47;;;0.32;;
39426;SDS011;25938;48.470;1.486;2023-05-10T13:23:32;2.92;;;0.60;;
39426;SDS011;25938;48.470;1.486;2023-05-10T13:25:58;4.90;;;0.70;;
39426;SDS011;25938;48.470;1.486;2023-05-10T13:28:24;1.08;;;0.25;;
39426;SDS011;25938;48.470;1.486;2023-05-10T13:30:51;5.22;;;1.05;;
39426;SDS011;25938;48.470;1.486;2023-05-10T13:33:17;1.90;;;0.30;;
39426;SDS011;25938;48.470;1.486;2023-05-10T13:35:43;1.75;;;0.50;;
39426;SDS011;25938;48.470;1.486;2023-05-10T13:38:09;4.07;;;1.05;;
39426;SDS011;25938;48.470;1.486;2023-05-10T13:40:35;1.17;;;0.70;;
39426;SDS011;25938;48.470;1.486;2023-05-10T13:43:01;2.50;;;0.40;;
39426;SDS011;25938;48.470;1.486;2023-05-10T13:45:27;1.75;;;0.82;;
39426;SDS011;25938;48.470;1.486;2023-05-10T13:47:53;2.70;;;1.08;;
39426;SDS011;25938;48.470;1.486;2023-05-10T13:50:19;1.92;;;0.70;;
39426;SDS011;25938;48.470;1.486;2023-05-10T13:52:45;0.88;;;0.47;;
39426;SDS011;25938;48.470;1.486;2023-05-10T13:55:12;2.28;;;0.20;;
39426;SDS011;25938;48.470;1.486;2023-05-10T13:57:38;0.68;;;0.30;;
39426;SDS011;25938;48.470;1.486;2023-05-10T14:00:04;1.80;;;0.10;;
39426;SDS011;25938;48.470;1.486;2023-05-10T14:02:31;0.20;;;0.10;;
39426;SDS011;25938;48.470;1.486;2023-05-10T14:04:57;1.10;;;0.30;;
39426;SDS011;25938;48.470;1.486;2023-05-10T14:07:23;0.75;;;0.20;;
39426;SDS011;25938;48.470;1.486;2023-05-10T14:09:49;0.57;;;0.10;;
39426;SDS011;25938;48.470;1.486;2023-05-10T14:12:15;1.75;;;0.10;;
39426;SDS011;25938;48.470;1.486;2023-05-10T14:14:41;0.82;;;0.10;;
39426;SDS011;25938;48.470;1.486;2023-05-10T14:17:07;1.10;;;0.95;;
39426;SDS011;25938;48.470;1.486;2023-05-10T14:19:33;2.05;;;0.20;;
39426;SDS011;25938;48.470;1.486;2023-05-10T14:21:59;2.05;;;0.40;;
39426;SDS011;25938;48.470;1.486;2023-05-10T14:24:25;0.50;;;0.20;;
39426;SDS011;25938;48.470;1.486;2023-05-10T14:26:51;1.10;;;0.25;;
39426;SDS011;25938;48.470;1.486;2023-05-10T14:29:19;3.40;;;0.50;;
39426;SDS011;25938;48.470;1.486;2023-05-10T14:31:45;2.97;;;0.45;;
39426;SDS011;25938;48.470;1.486;2023-05-10T14:34:11;1.05;;;0.22;;
39426;SDS011;25938;48.470;1.486;2023-05-10T14:36:37;1.75;;;0.25;;
39426;SDS011;25938;48.470;1.486;2023-05-10T14:39:03;0.15;;;0.03;;
39426;SDS011;25938;48.470;1.486;2023-05-10T14:41:29;1.95;;;0.63;;
39426;SDS011;25938;48.470;1.486;2023-05-10T14:43:55;0.68;;;0.10;;
39426;SDS011;25938;48.470;1.486;2023-05-10T14:46:22;1.10;;;0.20;;
39426;SDS011;25938;48.470;1.486;2023-05-10T14:48:47;2.25;;;0.38;;
39426;SDS011;25938;48.470;1.486;2023-05-10T14:51:14;1.95;;;0.30;;
39426;SDS011;25938;48.470;1.486;2023-05-10T14:53:40;1.05;;;0.20;;
39426;SDS011;25938;48.470;1.486;2023-05-10T14:56:06;1.08;;;0.47;;
39426;SDS011;25938;48.470;1.486;2023-05-10T14:58:32;0.80;;;0.30;;
39426;SDS011;25938;48.470;1.486;2023-05-10T15:00:58;1.45;;;0.30;;
39426;SDS011;25938;48.470;1.486;2023-05-10T15:03:24;0.98;;;0.52;;
39426;SDS011;25938;48.470;1.486;2023-05-10T15:05:50;0.70;;;0.35;;
39426;SDS011;25938;48.470;1.486;2023-05-10T15:08:16;2.92;;;0.20;;
39426;SDS011;25938;48.470;1.486;2023-05-10T15:10:43;0.77;;;0.52;;
39426;SDS011;25938;48.470;1.486;2023-05-10T15:13:09;2.50;;;0.50;;
39426;SDS011;25938;48.470;1.486;2023-05-10T15:15:35;1.08;;;0.50;;
39426;SDS011;25938;48.470;1.486;2023-05-10T15:18:01;1.25;;;0.57;;
39426;SDS011;25938;48.470;1.486;2023-05-10T15:20:27;3.17;;;0.40;;
39426;SDS011;25938;48.470;1.486;2023-05-10T15:22:53;1.77;;;0.30;;
39426;SDS011;25938;48.470;1.486;2023-05-10T15:25:19;1.48;;;0.60;;
39426;SDS011;25938;48.470;1.486;2023-05-10T15:27:45;0.47;;;0.05;;
39426;SDS011;25938;48.470;1.486;2023-05-10T15:30:11;0.70;;;0.60;;
39426;SDS011;25938;48.470;1.486;2023-05-10T15:32:37;1.10;;;0.20;;
39426;SDS011;25938;48.470;1.486;2023-05-10T15:35:05;0.70;;;0.50;;
39426;SDS011;25938;48.470;1.486;2023-05-10T15:37:31;0.32;;;0.20;;